Sandra Hugh — WDD9019 — position and weather

sailwx.info

Track history (hours):
 
Tides and Currents Weather Stations Pressure Air Temp Water Temp Dewpoint Dewpoint Depression Visibility Wind Speed Wind Dir Waves Ship Positions

Sandra Hugh

Owner: AMNAV Maritime Corporation, Oakland, CA. More information available from US FCC via Universal Licensing System and Coast Guard Vessel Documentation Center.

Last reported at 2018-Apr-19 21:00 UTC. Time now 2018-Apr-19 21:22 UTC.
Position N 37°49' W 122°19'.

Length 24 m; draft 4.9 m.

Type: Tug. MMSI: 367305920.

Date/timePositionNaut miles runAvg speedWind from/ knotsBaromVisibWave heightAir tempDewpointWater temp
2018-Apr-19 21:00N 37°49' W 122°19'0 0.0
2018-Apr-19 20:29N 37°49' W 122°19'0 0.0
2018-Apr-19 20:00N 37°49' W 122°19'0 0.0
2018-Apr-19 19:30N 37°49' W 122°19'0 0.0
2018-Apr-19 19:00N 37°49' W 122°19'0 0.0
2018-Apr-19 18:30N 37°49' W 122°19'0 0.0
2018-Apr-19 18:00N 37°49' W 122°19'0 0.0
2018-Apr-19 17:30N 37°49' W 122°19'0 0.0
2018-Apr-19 17:00N 37°49' W 122°19'0 0.0
2018-Apr-19 16:30N 37°49' W 122°19'0 0.0
2018-Apr-19 16:00N 37°49' W 122°19'0 0.0
2018-Apr-19 15:30N 37°49' W 122°19'0 0.0
2018-Apr-19 15:00N 37°49' W 122°19'0 0.0
2018-Apr-19 14:30N 37°49' W 122°19'0 0.0
2018-Apr-19 14:00N 37°49' W 122°19'0 0.0
2018-Apr-19 13:30N 37°49' W 122°19'0 0.0
2018-Apr-19 13:00N 37°49' W 122°19'0 0.0
2018-Apr-19 12:30N 37°49' W 122°19'0 0.0
2018-Apr-19 12:00N 37°49' W 122°19'0 0.0
2018-Apr-19 11:30N 37°49' W 122°19'0 0.0
2018-Apr-19 11:00N 37°49' W 122°19'0 0.0
2018-Apr-19 10:30N 37°49' W 122°19'0 0.0
2018-Apr-19 09:59N 37°49' W 122°19'0 0.0
2018-Apr-19 09:30N 37°49' W 122°19'0 0.0
2018-Apr-19 08:59N 37°49' W 122°19'0 0.0
2018-Apr-19 08:30N 37°49' W 122°19'0 0.0
2018-Apr-19 08:00N 37°49' W 122°19'0 0.0
2018-Apr-19 07:30N 37°49' W 122°19'0 0.0
2018-Apr-19 07:00N 37°49' W 122°19'0 0.0
2018-Apr-19 06:30N 37°49' W 122°19'0 0.0
2018-Apr-19 06:00N 37°49' W 122°19'2 4.0
2018-Apr-19 05:30N 37°48' W 122°21'5 9.3
2018-Apr-19 05:00N 37°43' W 122°20'5 9.6
2018-Apr-19 04:30N 37°39' W 122°18'510.3
2018-Apr-19 04:00N 37°35' W 122°14'4 3.5
2018-Apr-19 02:48N 37°31' W 122°13'1 2.0
2018-Apr-19 02:29N 37°31' W 122°12'3 5.7
2018-Apr-19 02:00N 37°34' W 122°13'5 9.9
2018-Apr-19 01:30N 37°37' W 122°18'5 9.8
2018-Apr-19 01:00N 37°42' W 122°20'5 9.8
2018-Apr-19 00:31N 37°47' W 122°21'2 3.2
2018-Apr-19 00:00N 37°48' W 122°19'1 2.8
2018-Apr-18 23:31N 37°48' W 122°17'2 4.7
2018-Apr-18 23:00N 37°48' W 122°20'1 1.9
2018-Apr-18 22:31N 37°49' W 122°20'0 0.5
2018-Apr-18 22:00N 37°49' W 122°20'0 0.8
2018-Apr-18 21:30N 37°49' W 122°19'1 1.4
2018-Apr-18 21:00N 37°49' W 122°19'0 0.0
2018-Apr-18 20:30N 37°49' W 122°19'0 0.0
2018-Apr-18 20:00N 37°49' W 122°19'0 0.0
2018-Apr-18 19:30N 37°49' W 122°19'0 0.0
2018-Apr-18 19:00N 37°49' W 122°19'0 0.0
2018-Apr-18 18:30N 37°49' W 122°19'0 0.0
2018-Apr-18 18:00N 37°49' W 122°19'0 0.0
2018-Apr-18 17:30N 37°49' W 122°19'0 0.0
2018-Apr-18 17:00N 37°49' W 122°19'0 0.0
2018-Apr-18 16:30N 37°49' W 122°19'0 0.0
2018-Apr-18 16:00N 37°49' W 122°19'0 0.0
2018-Apr-18 15:30N 37°49' W 122°19'0 0.0
2018-Apr-18 15:00N 37°49' W 122°19'0 0.0
2018-Apr-18 14:30N 37°49' W 122°19'2 3.1
2018-Apr-18 14:00N 37°49' W 122°20'2 4.4
2018-Apr-18 13:30N 37°48' W 122°18'0 0.4
2018-Apr-18 13:00N 37°48' W 122°18'1 2.5
2018-Apr-18 12:30N 37°48' W 122°19'3 6.2
2018-Apr-18 12:00N 37°49' W 122°23'3 5.1
2018-Apr-18 11:31N 37°49' W 122°20'1 2.0
2018-Apr-18 11:00N 37°49' W 122°19'0 0.0
2018-Apr-18 10:30N 37°49' W 122°19'0 0.0
2018-Apr-18 10:00N 37°49' W 122°19'0 0.0
2018-Apr-18 09:30N 37°49' W 122°19'0 0.0
2018-Apr-18 09:00N 37°49' W 122°19'0 0.0
2018-Apr-18 08:30N 37°49' W 122°19'0 0.0
2018-Apr-18 08:00N 37°49' W 122°19'0 0.0
2018-Apr-18 07:30N 37°49' W 122°19'0 0.0
2018-Apr-18 07:00N 37°49' W 122°19'0 0.0
2018-Apr-18 06:30N 37°49' W 122°19'0 0.0
2018-Apr-18 06:00N 37°49' W 122°19'0 0.0
2018-Apr-18 05:30N 37°49' W 122°19'0 0.0
2018-Apr-18 05:00N 37°49' W 122°19'0 0.0
2018-Apr-18 04:30N 37°49' W 122°19'0 0.0
2018-Apr-18 04:00N 37°49' W 122°19'0 0.0
2018-Apr-18 03:30N 37°49' W 122°19'0 0.0
2018-Apr-18 03:00N 37°49' W 122°19'0 0.0
2018-Apr-18 02:30N 37°49' W 122°19'0 0.9
2018-Apr-18 02:00N 37°49' W 122°19'1 1.3
2018-Apr-18 01:30N 37°49' W 122°20'1 1.5
2018-Apr-18 01:00N 37°48' W 122°21'0 0.2
2018-Apr-18 00:30N 37°48' W 122°21'1 1.4
2018-Apr-18 00:01N 37°49' W 122°20'0 0.8
2018-Apr-17 23:30N 37°49' W 122°19'1 1.4
2018-Apr-17 23:00N 37°49' W 122°19'0 0.0
2018-Apr-17 22:30N 37°49' W 122°19'0 0.0
2018-Apr-17 22:00N 37°49' W 122°19'0 0.0
2018-Apr-17 21:30N 37°49' W 122°19'0 0.0
2018-Apr-17 21:00N 37°49' W 122°19'0 0.0
2018-Apr-17 20:30N 37°49' W 122°19'0 0.0
2018-Apr-17 20:00N 37°49' W 122°19'0 0.0
2018-Apr-17 19:30N 37°49' W 122°19'0 0.0
2018-Apr-17 18:59N 37°49' W 122°19'0 0.0
2018-Apr-17 18:30N 37°49' W 122°19'0 0.0
2018-Apr-17 18:00N 37°49' W 122°19'0 0.0
2018-Apr-17 17:30N 37°49' W 122°19'0 0.0
2018-Apr-17 17:00N 37°49' W 122°19'0 0.0
2018-Apr-17 16:30N 37°49' W 122°19'0 0.0
2018-Apr-17 16:00N 37°49' W 122°19'1 1.9
2018-Apr-17 15:30N 37°49' W 122°20'2 3.3
2018-Apr-17 15:00N 37°48' W 122°18'1 1.4
2018-Apr-17 14:30N 37°48' W 122°17'1 2.9
2018-Apr-17 14:01N 37°48' W 122°19'0 0.1
2018-Apr-17 13:30N 37°48' W 122°19'0 0.4
2018-Apr-17 13:01N 37°48' W 122°19'0 0.0
2018-Apr-17 12:30N 37°48' W 122°19'0 0.0
2018-Apr-17 12:00N 37°48' W 122°19'0 0.0
2018-Apr-17 11:30N 37°48' W 122°19'0 0.0
2018-Apr-17 11:00N 37°48' W 122°19'0 0.0
2018-Apr-17 10:30N 37°48' W 122°19'0 0.0
2018-Apr-17 10:00N 37°48' W 122°19'0 0.0
2018-Apr-17 09:30N 37°48' W 122°19'1 2.2
2018-Apr-17 09:00N 37°48' W 122°18'0 0.1
2018-Apr-17 08:30N 37°48' W 122°18'1 2.8
2018-Apr-17 08:00N 37°48' W 122°20'2 3.3
2018-Apr-17 07:30N 37°49' W 122°19'0 0.0
2018-Apr-17 07:00N 37°49' W 122°19'0 0.0
2018-Apr-17 06:30N 37°49' W 122°19'0 0.0
2018-Apr-17 06:00N 37°49' W 122°19'0 0.0
2018-Apr-17 05:30N 37°49' W 122°19'0 0.0
2018-Apr-17 05:00N 37°49' W 122°19'0 0.0
2018-Apr-17 04:30N 37°49' W 122°19'0 0.0
2018-Apr-17 04:00N 37°49' W 122°19'0 0.0
2018-Apr-17 03:30N 37°49' W 122°19'0 0.0
2018-Apr-17 03:00N 37°49' W 122°19'0 0.0
2018-Apr-17 02:30N 37°49' W 122°19'0 0.0
2018-Apr-17 02:00N 37°49' W 122°19'0 0.0
2018-Apr-17 01:30N 37°49' W 122°19'0 0.1
2018-Apr-17 01:01N 37°49' W 122°19'1 1.8
2018-Apr-17 00:31N 37°49' W 122°20'0 0.6
2018-Apr-17 00:00N 37°49' W 122°20'1 2.2
2018-Apr-16 23:30N 37°49' W 122°19'0 0.0
2018-Apr-16 23:00N 37°49' W 122°19'0 0.0
2018-Apr-16 22:30N 37°49' W 122°19'0 0.0
2018-Apr-16 22:00N 37°49' W 122°19'0 0.0
2018-Apr-16 21:30N 37°49' W 122°19'0 0.0
2018-Apr-16 21:00N 37°49' W 122°19'0 0.0
2018-Apr-16 20:30N 37°49' W 122°19'0 0.0
2018-Apr-16 20:00N 37°49' W 122°19'0 0.0
2018-Apr-16 19:30N 37°49' W 122°19'0 0.0
2018-Apr-16 19:00N 37°49' W 122°19'0 0.0
2018-Apr-16 18:30N 37°49' W 122°19'0 0.0
2018-Apr-16 18:00N 37°49' W 122°19'0 0.0
2018-Apr-16 17:30N 37°49' W 122°19'0 0.0
2018-Apr-16 17:00N 37°49' W 122°19'0 0.0
2018-Apr-16 16:30N 37°49' W 122°19'0 0.0
2018-Apr-16 16:00N 37°49' W 122°19'2 3.5
2018-Apr-16 15:30N 37°48' W 122°20'2 3.9
2018-Apr-16 15:00N 37°48' W 122°18'0 1.0
2018-Apr-16 14:31N 37°48' W 122°17'2 3.7
2018-Apr-16 14:00N 37°48' W 122°20'2 3.0
2018-Apr-16 13:30N 37°48' W 122°22'3 5.1
2018-Apr-16 13:00N 37°49' W 122°19'0 0.0
2018-Apr-16 12:30N 37°49' W 122°19'0 0.0
2018-Apr-16 12:00N 37°49' W 122°19'0 0.0
2018-Apr-16 11:30N 37°49' W 122°19'0 0.0
2018-Apr-16 11:00N 37°49' W 122°19'0 0.0
2018-Apr-16 10:30N 37°49' W 122°19'0 0.0
2018-Apr-16 10:00N 37°49' W 122°19'0 0.0
2018-Apr-16 09:30N 37°49' W 122°19'0 0.0
2018-Apr-16 09:00N 37°49' W 122°19'0 0.0
2018-Apr-16 08:30N 37°49' W 122°19'0 0.0
2018-Apr-16 08:00N 37°49' W 122°19'0 0.0
2018-Apr-16 07:30N 37°49' W 122°19'0 0.0
2018-Apr-16 07:00N 37°49' W 122°19'0 0.0
2018-Apr-16 06:30N 37°49' W 122°19'0 0.0
2018-Apr-16 06:00N 37°49' W 122°19'0 0.0
2018-Apr-16 05:30N 37°49' W 122°19'0 0.0
2018-Apr-16 05:00N 37°49' W 122°19'0 0.0
2018-Apr-16 04:30N 37°49' W 122°19'0 0.0
2018-Apr-16 04:00N 37°49' W 122°19'0 0.0
2018-Apr-16 03:30N 37°49' W 122°19'0 0.0
2018-Apr-16 03:00N 37°49' W 122°19'1 1.8
2018-Apr-16 02:30N 37°49' W 122°19'0 0.2
2018-Apr-16 02:00N 37°49' W 122°20'2 3.7
2018-Apr-16 01:30N 37°48' W 122°22'3 5.3
2018-Apr-16 01:00N 37°49' W 122°19'0 0.0
2018-Apr-16 00:30N 37°49' W 122°19'0 0.0
2018-Apr-16 00:00N 37°49' W 122°19'0 0.0
2018-Apr-15 23:30N 37°49' W 122°19'0 0.0
2018-Apr-15 23:00N 37°49' W 122°19'0 0.0
2018-Apr-15 22:30N 37°49' W 122°19'0 0.0
2018-Apr-15 22:00N 37°49' W 122°19'0 0.0
2018-Apr-15 21:30N 37°49' W 122°19'0 0.0
2018-Apr-15 21:00N 37°49' W 122°19'0 0.0
2018-Apr-15 20:30N 37°49' W 122°19'0 0.0
2018-Apr-15 20:00N 37°49' W 122°19'0 0.0
2018-Apr-15 19:30N 37°49' W 122°19'0 0.0
2018-Apr-15 19:00N 37°49' W 122°19'0 0.0
2018-Apr-15 18:30N 37°49' W 122°19'0 0.0
2018-Apr-15 18:00N 37°49' W 122°19'0 0.0
2018-Apr-15 17:30N 37°49' W 122°19'0 0.0
2018-Apr-15 17:00N 37°49' W 122°19'0 0.0
2018-Apr-15 16:30N 37°49' W 122°19'0 0.0
2018-Apr-15 16:00N 37°49' W 122°19'0 0.0
2018-Apr-15 15:30N 37°49' W 122°19'0 0.0
2018-Apr-15 15:00N 37°49' W 122°19'0 0.0
2018-Apr-15 14:30N 37°49' W 122°19'0 0.0
2018-Apr-15 14:00N 37°49' W 122°19'1 2.9
2018-Apr-15 13:30N 37°49' W 122°20'1 2.4
2018-Apr-15 13:01N 37°48' W 122°19'1 2.9
2018-Apr-15 12:31N 37°48' W 122°17'2 3.7
2018-Apr-15 12:01N 37°48' W 122°20'2 3.9
2018-Apr-15 11:30N 37°48' W 122°22'1 2.6
2018-Apr-15 11:00N 37°48' W 122°21'0 0.0
2018-Apr-15 10:30N 37°48' W 122°21'0 0.0
2018-Apr-15 10:00N 37°48' W 122°21'1 1.9
2018-Apr-15 09:30N 37°49' W 122°19'0 0.7
2018-Apr-15 09:00N 37°49' W 122°20'1 2.2
2018-Apr-15 08:31N 37°49' W 122°19'0 0.0
2018-Apr-15 08:00N 37°49' W 122°19'0 0.0
2018-Apr-15 07:30N 37°49' W 122°19'0 0.0
2018-Apr-15 07:00N 37°49' W 122°19'0 0.0
2018-Apr-15 06:30N 37°49' W 122°19'0 0.0
2018-Apr-15 06:00N 37°49' W 122°19'0 0.0
2018-Apr-15 05:30N 37°49' W 122°19'0 0.0
2018-Apr-15 05:00N 37°49' W 122°19'0 0.0
2018-Apr-15 04:30N 37°49' W 122°19'0 0.0
2018-Apr-15 04:00N 37°49' W 122°19'0 0.0
2018-Apr-15 03:30N 37°49' W 122°19'0 0.0
2018-Apr-15 03:00N 37°49' W 122°19'0 0.0
2018-Apr-15 02:30N 37°49' W 122°19'0 0.0
2018-Apr-15 02:00N 37°49' W 122°19'0 0.0
2018-Apr-15 01:30N 37°49' W 122°19'0 0.0
2018-Apr-15 01:00N 37°49' W 122°19'0 0.0
2018-Apr-15 00:30N 37°49' W 122°19'0 0.0
2018-Apr-15 00:00N 37°49' W 122°19'0 0.0
2018-Apr-14 23:30N 37°49' W 122°19'0 0.0
2018-Apr-14 23:00N 37°49' W 122°19'0 0.0
2018-Apr-14 22:29N 37°49' W 122°19'0 0.0
2018-Apr-14 22:00N 37°49' W 122°19'0 0.0
2018-Apr-14 21:30N 37°49' W 122°19'0 0.0
2018-Apr-14 21:00N 37°49' W 122°19'0 0.0
2018-Apr-14 20:29N 37°49' W 122°19'0 0.0
2018-Apr-14 20:00N 37°49' W 122°19'0 0.0
2018-Apr-14 19:30N 37°49' W 122°19'0 0.0
2018-Apr-14 19:00N 37°49' W 122°19'0 0.0
2018-Apr-14 18:30N 37°49' W 122°19'0 0.0
2018-Apr-14 18:00N 37°49' W 122°19'0 0.0
2018-Apr-14 17:30N 37°49' W 122°19'0 0.0
2018-Apr-14 17:00N 37°49' W 122°19'0 0.0
2018-Apr-14 16:30N 37°49' W 122°19'0 0.0
2018-Apr-14 16:00N 37°49' W 122°19'0 0.0
2018-Apr-14 15:30N 37°49' W 122°19'0 0.0
2018-Apr-14 15:00N 37°49' W 122°19'0 0.0
2018-Apr-14 14:30N 37°49' W 122°19'0 0.0
2018-Apr-14 14:00N 37°49' W 122°19'1 2.3
2018-Apr-14 13:30N 37°49' W 122°20'1 1.8
2018-Apr-14 13:00N 37°48' W 122°19'0 0.1
2018-Apr-14 12:30N 37°48' W 122°20'1 2.7
2018-Apr-14 12:00N 37°48' W 122°21'2 4.2
2018-Apr-14 11:30N 37°49' W 122°19'0 0.0
2018-Apr-14 11:00N 37°49' W 122°19'0 0.0
2018-Apr-14 10:30N 37°49' W 122°19'0 0.0
2018-Apr-14 10:00N 37°49' W 122°19'0 0.0
2018-Apr-14 09:30N 37°49' W 122°19'0 0.0
2018-Apr-14 09:00N 37°49' W 122°19'0 0.0
2018-Apr-14 08:30N 37°49' W 122°19'0 0.0
2018-Apr-14 08:00N 37°49' W 122°19'0 0.0
2018-Apr-14 07:30N 37°49' W 122°19'0 0.0
2018-Apr-14 07:00N 37°49' W 122°19'0 0.0
2018-Apr-14 06:30N 37°49' W 122°19'0 0.0
2018-Apr-14 06:00N 37°49' W 122°19'0 0.0
2018-Apr-14 05:30N 37°49' W 122°19'0 0.0
2018-Apr-14 05:00N 37°49' W 122°19'0 0.0
2018-Apr-14 04:30N 37°49' W 122°19'0 0.0
2018-Apr-14 04:00N 37°49' W 122°19'0 0.0
2018-Apr-14 03:30N 37°49' W 122°19'0 0.0
2018-Apr-14 03:00N 37°49' W 122°19'0 0.0
2018-Apr-14 02:30N 37°49' W 122°19'0 0.0
2018-Apr-14 02:00N 37°49' W 122°19'0 0.0
2018-Apr-14 01:30N 37°49' W 122°19'0 0.0
2018-Apr-14 01:00N 37°49' W 122°19'1 2.8
2018-Apr-14 00:30N 37°49' W 122°20'510.2
2018-Apr-14 00:00N 37°53' W 122°24'2 4.3
2018-Apr-13 23:30N 37°54' W 122°23'0 0.0
2018-Apr-13 23:00N 37°54' W 122°23'0 0.0
2018-Apr-13 22:30N 37°54' W 122°23'1 2.0
2018-Apr-13 21:56N 37°54' W 122°22'3 5.8
2018-Apr-13 21:30N 37°54' W 122°25'510.2
2018-Apr-13 21:00N 37°49' W 122°21'2 4.2
2018-Apr-13 20:30N 37°49' W 122°19'0 0.0
2018-Apr-13 20:00N 37°49' W 122°19'0 0.0
2018-Apr-13 19:30N 37°49' W 122°19'0 0.0
2018-Apr-13 19:00N 37°49' W 122°19'0 0.0
2018-Apr-13 18:30N 37°49' W 122°19'0 0.0
2018-Apr-13 18:00N 37°49' W 122°19'0 0.0
2018-Apr-13 17:30N 37°49' W 122°19'0 0.0
2018-Apr-13 17:00N 37°49' W 122°19'0 0.0
2018-Apr-13 16:30N 37°49' W 122°19'0 0.0
2018-Apr-13 16:00N 37°49' W 122°19'0 0.0
2018-Apr-13 15:30N 37°49' W 122°19'0 0.0
2018-Apr-13 15:00N 37°49' W 122°19'0 0.0
2018-Apr-13 14:30N 37°49' W 122°19'2 3.4
2018-Apr-13 14:00N 37°48' W 122°21'3 5.2
2018-Apr-13 13:30N 37°47' W 122°17'1 2.2
2018-Apr-13 13:00N 37°48' W 122°19'3 5.2
2018-Apr-13 12:30N 37°48' W 122°22'1 2.5
2018-Apr-13 12:00N 37°48' W 122°21'0 0.0
2018-Apr-13 11:30N 37°48' W 122°21'0 0.0
2018-Apr-13 11:00N 37°48' W 122°21'0 0.0
2018-Apr-13 10:30N 37°48' W 122°21'0 0.0
2018-Apr-13 09:58N 37°48' W 122°21'0 0.0
2018-Apr-13 09:30N 37°48' W 122°21'1 2.1
2018-Apr-13 09:00N 37°48' W 122°19'1 1.5
2018-Apr-13 08:31N 37°48' W 122°18'0 0.5
2018-Apr-13 08:00N 37°48' W 122°18'3 5.8
2018-Apr-13 07:30N 37°48' W 122°22'1 2.0
2018-Apr-13 07:00N 37°48' W 122°21'0 0.0
2018-Apr-13 06:30N 37°48' W 122°21'0 0.0
2018-Apr-13 06:00N 37°48' W 122°21'0 0.0
2018-Apr-13 05:30N 37°48' W 122°21'0 0.0
2018-Apr-13 05:00N 37°48' W 122°21'0 0.0
2018-Apr-13 04:30N 37°48' W 122°21'3 5.3
2018-Apr-13 04:00N 37°51' W 122°22'4 8.2
2018-Apr-13 03:30N 37°54' W 122°24'2 3.3
2018-Apr-13 03:00N 37°55' W 122°22'0 0.4
2018-Apr-13 02:30N 37°54' W 122°22'2 3.9
2018-Apr-13 02:00N 37°54' W 122°24'2 3.5
2018-Apr-13 01:30N 37°53' W 122°25'1 2.5
2018-Apr-13 01:00N 37°52' W 122°24'4 8.2
2018-Apr-13 00:30N 37°49' W 122°21'2 3.6
2018-Apr-12 23:59N 37°49' W 122°19'0 0.0
2018-Apr-12 23:31N 37°49' W 122°19'0 0.0
2018-Apr-12 23:00N 37°49' W 122°19'0 0.0
2018-Apr-12 22:30N 37°49' W 122°19'0 0.0
2018-Apr-12 22:00N 37°49' W 122°19'0 0.0
2018-Apr-12 21:30N 37°49' W 122°19'0 0.0
2018-Apr-12 21:01N 37°49' W 122°19'0 0.0
2018-Apr-12 20:30N 37°49' W 122°19'0 0.0
2018-Apr-12 20:00N 37°49' W 122°19'0 0.0
2018-Apr-12 19:30N 37°49' W 122°19'0 0.0
2018-Apr-12 19:00N 37°49' W 122°19'0 0.0
2018-Apr-12 18:30N 37°49' W 122°19'0 0.0
2018-Apr-12 18:00N 37°49' W 122°19'0 0.0
2018-Apr-12 17:31N 37°49' W 122°19'0 0.0
2018-Apr-12 17:01N 37°49' W 122°19'0 0.0
2018-Apr-12 16:31N 37°49' W 122°19'0 0.0
2018-Apr-12 16:00N 37°49' W 122°19'0 0.0
2018-Apr-12 15:30N 37°49' W 122°19'0 0.0
2018-Apr-12 15:00N 37°49' W 122°19'0 0.0
2018-Apr-12 14:29N 37°49' W 122°19'2 3.5
2018-Apr-12 14:01N 37°48' W 122°19'0 0.3
2018-Apr-12 13:30N 37°48' W 122°18'1 1.2
2018-Apr-12 13:00N 37°48' W 122°18'3 5.4
2018-Apr-12 12:31N 37°48' W 122°21'2 3.1
2018-Apr-12 12:00N 37°48' W 122°23'2 3.8
2018-Apr-12 11:31N 37°48' W 122°21'0 0.0
2018-Apr-12 11:00N 37°48' W 122°21'0 0.3
2018-Apr-12 10:30N 37°48' W 122°21'1 1.2
2018-Apr-12 10:00N 37°49' W 122°20'1 1.3
2018-Apr-12 09:30N 37°49' W 122°19'0 0.9
2018-Apr-12 09:00N 37°49' W 122°19'0 0.0
2018-Apr-12 08:30N 37°49' W 122°19'0 0.0
2018-Apr-12 08:00N 37°49' W 122°19'0 0.0
2018-Apr-12 07:31N 37°49' W 122°19'0 0.0
2018-Apr-12 07:01N 37°49' W 122°19'0 0.0
2018-Apr-12 06:31N 37°49' W 122°19'0 0.0
2018-Apr-12 06:01N 37°49' W 122°19'0 0.0
2018-Apr-12 05:31N 37°49' W 122°19'0 0.0
2018-Apr-12 05:00N 37°49' W 122°19'0 0.0
2018-Apr-12 04:30N 37°49' W 122°19'0 0.0
2018-Apr-12 04:00N 37°49' W 122°19'0 0.0
2018-Apr-12 03:30N 37°49' W 122°19'0 0.0
2018-Apr-12 03:01N 37°49' W 122°19'0 0.0
2018-Apr-12 02:30N 37°49' W 122°19'0 0.0
2018-Apr-12 01:59N 37°49' W 122°19'2 3.7
2018-Apr-12 01:30N 37°48' W 122°20'1 2.8
2018-Apr-12 01:00N 37°48' W 122°19'0 0.1
2018-Apr-12 00:31N 37°48' W 122°19'1 2.0
2018-Apr-12 00:00N 37°49' W 122°19'0 0.0
2018-Apr-11 23:29N 37°49' W 122°19'0 0.7
2018-Apr-11 23:00N 37°49' W 122°20'2 4.0
2018-Apr-11 22:30N 37°48' W 122°22'3 5.5
2018-Apr-11 22:01N 37°49' W 122°19'0 0.6
2018-Apr-11 21:31N 37°49' W 122°19'0 0.0
2018-Apr-11 21:00N 37°49' W 122°19'0 0.0
2018-Apr-11 20:30N 37°49' W 122°19'0 0.0
2018-Apr-11 20:00N 37°49' W 122°19'0 0.0
2018-Apr-11 19:31N 37°49' W 122°19'0 0.0
2018-Apr-11 19:00N 37°49' W 122°19'0 0.0
2018-Apr-11 18:31N 37°49' W 122°19'0 0.0
2018-Apr-11 18:00N 37°49' W 122°19'0 0.0
2018-Apr-11 17:30N 37°49' W 122°19'0 0.0
2018-Apr-11 17:00N 37°49' W 122°19'0 0.0
2018-Apr-11 16:31N 37°49' W 122°19'0 0.0
2018-Apr-11 16:01N 37°49' W 122°19'0 0.0
2018-Apr-11 15:30N 37°49' W 122°19'0 0.0
2018-Apr-11 15:01N 37°49' W 122°19'0 0.0
2018-Apr-11 14:30N 37°49' W 122°19'1 2.1
2018-Apr-11 14:01N 37°49' W 122°20'0 0.8
2018-Apr-11 13:30N 37°49' W 122°20'1 2.4
2018-Apr-11 13:01N 37°48' W 122°19'0 0.9
2018-Apr-11 12:30N 37°48' W 122°19'0 0.2
2018-Apr-11 12:01N 37°48' W 122°19'1 1.4
2018-Apr-11 11:31N 37°48' W 122°18'3 6.8
2018-Apr-11 11:00N 37°48' W 122°22'3 5.8
2018-Apr-11 10:31N 37°49' W 122°19'0 0.0
2018-Apr-11 10:00N 37°49' W 122°19'0 0.0
2018-Apr-11 09:30N 37°49' W 122°19'0 0.0
2018-Apr-11 09:00N 37°49' W 122°19'0 0.0
2018-Apr-11 08:30N 37°49' W 122°19'0 0.0
2018-Apr-11 08:00N 37°49' W 122°19'0 0.0
2018-Apr-11 07:31N 37°49' W 122°19'0 0.0
2018-Apr-11 07:01N 37°49' W 122°19'0 0.0
2018-Apr-11 06:30N 37°49' W 122°19'0 0.0
2018-Apr-11 06:00N 37°49' W 122°19'0 0.0
2018-Apr-11 05:30N 37°49' W 122°19'0 0.0
2018-Apr-11 05:00N 37°49' W 122°19'0 0.0
2018-Apr-11 04:30N 37°49' W 122°19'0 0.0
2018-Apr-11 04:00N 37°49' W 122°19'2 3.7
2018-Apr-11 03:30N 37°48' W 122°18'0 0.1
2018-Apr-11 03:00N 37°48' W 122°18'1 2.2
2018-Apr-11 02:31N 37°48' W 122°19'0 0.2
2018-Apr-11 02:00N 37°48' W 122°19'3 6.3
2018-Apr-11 01:29N 37°50' W 122°22'510.1
2018-Apr-11 01:00N 37°55' W 122°25'5 9.2
2018-Apr-11 00:29N 37°59' W 122°25'510.1
2018-Apr-11 00:00N 38°02' W 122°20'10 1.2
2018-Apr-10 15:46N 38°02' W 122°07'1 1.3
2018-Apr-10 14:37N 38°03' W 122°06'2 7.9
2018-Apr-10 14:21N 38°02' W 122°08'3 8.4
2018-Apr-10 14:00N 38°03' W 122°12'4 8.3
2018-Apr-10 13:30N 38°03' W 122°17'4 8.6
2018-Apr-10 13:00N 38°02' W 122°22'5 9.4
2018-Apr-10 12:29N 37°58' W 122°26'510.1
2018-Apr-10 12:00N 37°53' W 122°25'5 9.3
2018-Apr-10 11:31N 37°49' W 122°21'2 4.3
2018-Apr-10 11:00N 37°49' W 122°19'0 0.4
2018-Apr-10 10:30N 37°49' W 122°19'1 1.4
2018-Apr-10 09:57N 37°49' W 122°20'1 2.3
2018-Apr-10 09:30N 37°49' W 122°19'0 0.0
2018-Apr-10 09:00N 37°49' W 122°19'0 0.0
2018-Apr-10 08:30N 37°49' W 122°19'0 0.0
2018-Apr-10 08:00N 37°49' W 122°19'0 0.0
2018-Apr-10 07:31N 37°49' W 122°19'0 0.0
2018-Apr-10 07:01N 37°49' W 122°19'0 0.0
2018-Apr-10 06:30N 37°49' W 122°19'0 0.0
2018-Apr-10 06:00N 37°49' W 122°19'0 0.0
2018-Apr-10 05:30N 37°49' W 122°19'0 0.0
2018-Apr-10 05:00N 37°49' W 122°19'0 0.0
2018-Apr-10 04:29N 37°49' W 122°19'0 0.0
2018-Apr-10 04:00N 37°49' W 122°19'0 0.0
2018-Apr-10 03:30N 37°49' W 122°19'0 0.0
2018-Apr-10 03:01N 37°49' W 122°19'0 0.0
2018-Apr-10 02:29N 37°49' W 122°19'0 0.0
2018-Apr-10 02:00N 37°49' W 122°19'0 0.0
2018-Apr-10 01:30N 37°49' W 122°19'1 2.8
2018-Apr-10 01:01N 37°49' W 122°20'510.3
2018-Apr-10 00:30N 37°53' W 122°24'3 5.5
2018-Apr-10 00:00N 37°54' W 122°22'0 0.3
2018-Apr-09 23:30N 37°55' W 122°22'1 1.1
2018-Apr-09 23:00N 37°54' W 122°22'3 5.4
2018-Apr-09 22:30N 37°55' W 122°26'2 3.4
2018-Apr-09 22:01N 37°54' W 122°24'0 0.5
2018-Apr-09 21:30N 37°54' W 122°23'  
Track history (hours):
 
Tides and Currents Weather Stations Pressure Air Temp Water Temp Dewpoint Dewpoint Depression Visibility Wind Speed Wind Dir Waves Ship Positions

Sandra Hugh

Owner: AMNAV Maritime Corporation, Oakland, CA. More information available from US FCC via Universal Licensing System and Coast Guard Vessel Documentation Center.

Last reported at 2018-Apr-19 21:00 UTC. Time now 2018-Apr-19 21:22 UTC.
Position N 37°49' W 122°19'.

Length 24 m; draft 4.9 m.

Type: Tug. MMSI: 367305920.

Date/timePositionNaut miles runAvg speedWind from/ knotsBaromVisibWave heightAir tempDewpointWater temp
2018-Apr-19 21:00N 37°49' W 122°19'0 0.0
2018-Apr-19 20:29N 37°49' W 122°19'0 0.0
2018-Apr-19 20:00N 37°49' W 122°19'0 0.0
2018-Apr-19 19:30N 37°49' W 122°19'0 0.0
2018-Apr-19 19:00N 37°49' W 122°19'0 0.0
2018-Apr-19 18:30N 37°49' W 122°19'0 0.0
2018-Apr-19 18:00N 37°49' W 122°19'0 0.0
2018-Apr-19 17:30N 37°49' W 122°19'0 0.0
2018-Apr-19 17:00N 37°49' W 122°19'0 0.0
2018-Apr-19 16:30N 37°49' W 122°19'0 0.0
2018-Apr-19 16:00N 37°49' W 122°19'0 0.0
2018-Apr-19 15:30N 37°49' W 122°19'0 0.0
2018-Apr-19 15:00N 37°49' W 122°19'0 0.0
2018-Apr-19 14:30N 37°49' W 122°19'0 0.0
2018-Apr-19 14:00N 37°49' W 122°19'0 0.0
2018-Apr-19 13:30N 37°49' W 122°19'0 0.0
2018-Apr-19 13:00N 37°49' W 122°19'0 0.0
2018-Apr-19 12:30N 37°49' W 122°19'0 0.0
2018-Apr-19 12:00N 37°49' W 122°19'0 0.0
2018-Apr-19 11:30N 37°49' W 122°19'0 0.0
2018-Apr-19 11:00N 37°49' W 122°19'0 0.0
2018-Apr-19 10:30N 37°49' W 122°19'0 0.0
2018-Apr-19 09:59N 37°49' W 122°19'0 0.0
2018-Apr-19 09:30N 37°49' W 122°19'0 0.0
2018-Apr-19 08:59N 37°49' W 122°19'0 0.0
2018-Apr-19 08:30N 37°49' W 122°19'0 0.0
2018-Apr-19 08:00N 37°49' W 122°19'0 0.0
2018-Apr-19 07:30N 37°49' W 122°19'0 0.0
2018-Apr-19 07:00N 37°49' W 122°19'0 0.0
2018-Apr-19 06:30N 37°49' W 122°19'0 0.0
2018-Apr-19 06:00N 37°49' W 122°19'2 4.0
2018-Apr-19 05:30N 37°48' W 122°21'5 9.3
2018-Apr-19 05:00N 37°43' W 122°20'5 9.6
2018-Apr-19 04:30N 37°39' W 122°18'510.3
2018-Apr-19 04:00N 37°35' W 122°14'4 3.5
2018-Apr-19 02:48N 37°31' W 122°13'1 2.0
2018-Apr-19 02:29N 37°31' W 122°12'3 5.7
2018-Apr-19 02:00N 37°34' W 122°13'5 9.9
2018-Apr-19 01:30N 37°37' W 122°18'5 9.8
2018-Apr-19 01:00N 37°42' W 122°20'5 9.8
2018-Apr-19 00:31N 37°47' W 122°21'2 3.2
2018-Apr-19 00:00N 37°48' W 122°19'1 2.8
2018-Apr-18 23:31N 37°48' W 122°17'2 4.7
2018-Apr-18 23:00N 37°48' W 122°20'1 1.9
2018-Apr-18 22:31N 37°49' W 122°20'0 0.5
2018-Apr-18 22:00N 37°49' W 122°20'0 0.8
2018-Apr-18 21:30N 37°49' W 122°19'1 1.4
2018-Apr-18 21:00N 37°49' W 122°19'0 0.0
2018-Apr-18 20:30N 37°49' W 122°19'0 0.0
2018-Apr-18 20:00N 37°49' W 122°19'0 0.0
2018-Apr-18 19:30N 37°49' W 122°19'0 0.0
2018-Apr-18 19:00N 37°49' W 122°19'0 0.0
2018-Apr-18 18:30N 37°49' W 122°19'0 0.0
2018-Apr-18 18:00N 37°49' W 122°19'0 0.0
2018-Apr-18 17:30N 37°49' W 122°19'0 0.0
2018-Apr-18 17:00N 37°49' W 122°19'0 0.0
2018-Apr-18 16:30N 37°49' W 122°19'0 0.0
2018-Apr-18 16:00N 37°49' W 122°19'0 0.0
2018-Apr-18 15:30N 37°49' W 122°19'0 0.0
2018-Apr-18 15:00N 37°49' W 122°19'0 0.0
2018-Apr-18 14:30N 37°49' W 122°19'2 3.1
2018-Apr-18 14:00N 37°49' W 122°20'2 4.4
2018-Apr-18 13:30N 37°48' W 122°18'0 0.4
2018-Apr-18 13:00N 37°48' W 122°18'1 2.5
2018-Apr-18 12:30N 37°48' W 122°19'3 6.2
2018-Apr-18 12:00N 37°49' W 122°23'3 5.1
2018-Apr-18 11:31N 37°49' W 122°20'1 2.0
2018-Apr-18 11:00N 37°49' W 122°19'0 0.0
2018-Apr-18 10:30N 37°49' W 122°19'0 0.0
2018-Apr-18 10:00N 37°49' W 122°19'0 0.0
2018-Apr-18 09:30N 37°49' W 122°19'0 0.0
2018-Apr-18 09:00N 37°49' W 122°19'0 0.0
2018-Apr-18 08:30N 37°49' W 122°19'0 0.0
2018-Apr-18 08:00N 37°49' W 122°19'0 0.0
2018-Apr-18 07:30N 37°49' W 122°19'0 0.0
2018-Apr-18 07:00N 37°49' W 122°19'0 0.0
2018-Apr-18 06:30N 37°49' W 122°19'0 0.0
2018-Apr-18 06:00N 37°49' W 122°19'0 0.0
2018-Apr-18 05:30N 37°49' W 122°19'0 0.0
2018-Apr-18 05:00N 37°49' W 122°19'0 0.0
2018-Apr-18 04:30N 37°49' W 122°19'0 0.0
2018-Apr-18 04:00N 37°49' W 122°19'0 0.0
2018-Apr-18 03:30N 37°49' W 122°19'0 0.0
2018-Apr-18 03:00N 37°49' W 122°19'0 0.0
2018-Apr-18 02:30N 37°49' W 122°19'0 0.9
2018-Apr-18 02:00N 37°49' W 122°19'1 1.3
2018-Apr-18 01:30N 37°49' W 122°20'1 1.5
2018-Apr-18 01:00N 37°48' W 122°21'0 0.2
2018-Apr-18 00:30N 37°48' W 122°21'1 1.4
2018-Apr-18 00:01N 37°49' W 122°20'0 0.8
2018-Apr-17 23:30N 37°49' W 122°19'1 1.4
2018-Apr-17 23:00N 37°49' W 122°19'0 0.0
2018-Apr-17 22:30N 37°49' W 122°19'0 0.0
2018-Apr-17 22:00N 37°49' W 122°19'0 0.0
2018-Apr-17 21:30N 37°49' W 122°19'0 0.0
2018-Apr-17 21:00N 37°49' W 122°19'0 0.0
2018-Apr-17 20:30N 37°49' W 122°19'0 0.0
2018-Apr-17 20:00N 37°49' W 122°19'0 0.0
2018-Apr-17 19:30N 37°49' W 122°19'0 0.0
2018-Apr-17 18:59N 37°49' W 122°19'0 0.0
2018-Apr-17 18:30N 37°49' W 122°19'0 0.0
2018-Apr-17 18:00N 37°49' W 122°19'0 0.0
2018-Apr-17 17:30N 37°49' W 122°19'0 0.0
2018-Apr-17 17:00N 37°49' W 122°19'0 0.0
2018-Apr-17 16:30N 37°49' W 122°19'0 0.0
2018-Apr-17 16:00N 37°49' W 122°19'1 1.9
2018-Apr-17 15:30N 37°49' W 122°20'2 3.3
2018-Apr-17 15:00N 37°48' W 122°18'1 1.4
2018-Apr-17 14:30N 37°48' W 122°17'1 2.9
2018-Apr-17 14:01N 37°48' W 122°19'0 0.1
2018-Apr-17 13:30N 37°48' W 122°19'0 0.4
2018-Apr-17 13:01N 37°48' W 122°19'0 0.0
2018-Apr-17 12:30N 37°48' W 122°19'0 0.0
2018-Apr-17 12:00N 37°48' W 122°19'0 0.0
2018-Apr-17 11:30N 37°48' W 122°19'0 0.0
2018-Apr-17 11:00N 37°48' W 122°19'0 0.0
2018-Apr-17 10:30N 37°48' W 122°19'0 0.0
2018-Apr-17 10:00N 37°48' W 122°19'0 0.0
2018-Apr-17 09:30N 37°48' W 122°19'1 2.2
2018-Apr-17 09:00N 37°48' W 122°18'0 0.1
2018-Apr-17 08:30N 37°48' W 122°18'1 2.8
2018-Apr-17 08:00N 37°48' W 122°20'2 3.3
2018-Apr-17 07:30N 37°49' W 122°19'0 0.0
2018-Apr-17 07:00N 37°49' W 122°19'0 0.0
2018-Apr-17 06:30N 37°49' W 122°19'0 0.0
2018-Apr-17 06:00N 37°49' W 122°19'0 0.0
2018-Apr-17 05:30N 37°49' W 122°19'0 0.0
2018-Apr-17 05:00N 37°49' W 122°19'0 0.0
2018-Apr-17 04:30N 37°49' W 122°19'0 0.0
2018-Apr-17 04:00N 37°49' W 122°19'0 0.0
2018-Apr-17 03:30N 37°49' W 122°19'0 0.0
2018-Apr-17 03:00N 37°49' W 122°19'0 0.0
2018-Apr-17 02:30N 37°49' W 122°19'0 0.0
2018-Apr-17 02:00N 37°49' W 122°19'0 0.0
2018-Apr-17 01:30N 37°49' W 122°19'0 0.1
2018-Apr-17 01:01N 37°49' W 122°19'1 1.8
2018-Apr-17 00:31N 37°49' W 122°20'0 0.6
2018-Apr-17 00:00N 37°49' W 122°20'1 2.2
2018-Apr-16 23:30N 37°49' W 122°19'0 0.0
2018-Apr-16 23:00N 37°49' W 122°19'0 0.0
2018-Apr-16 22:30N 37°49' W 122°19'0 0.0
2018-Apr-16 22:00N 37°49' W 122°19'0 0.0
2018-Apr-16 21:30N 37°49' W 122°19'0 0.0
2018-Apr-16 21:00N 37°49' W 122°19'0 0.0
2018-Apr-16 20:30N 37°49' W 122°19'0 0.0
2018-Apr-16 20:00N 37°49' W 122°19'0 0.0
2018-Apr-16 19:30N 37°49' W 122°19'0 0.0
2018-Apr-16 19:00N 37°49' W 122°19'0 0.0
2018-Apr-16 18:30N 37°49' W 122°19'0 0.0
2018-Apr-16 18:00N 37°49' W 122°19'0 0.0
2018-Apr-16 17:30N 37°49' W 122°19'0 0.0
2018-Apr-16 17:00N 37°49' W 122°19'0 0.0
2018-Apr-16 16:30N 37°49' W 122°19'0 0.0
2018-Apr-16 16:00N 37°49' W 122°19'2 3.5
2018-Apr-16 15:30N 37°48' W 122°20'2 3.9
2018-Apr-16 15:00N 37°48' W 122°18'0 1.0
2018-Apr-16 14:31N 37°48' W 122°17'2 3.7
2018-Apr-16 14:00N 37°48' W 122°20'2 3.0
2018-Apr-16 13:30N 37°48' W 122°22'3 5.1
2018-Apr-16 13:00N 37°49' W 122°19'0 0.0
2018-Apr-16 12:30N 37°49' W 122°19'0 0.0
2018-Apr-16 12:00N 37°49' W 122°19'0 0.0
2018-Apr-16 11:30N 37°49' W 122°19'0 0.0
2018-Apr-16 11:00N 37°49' W 122°19'0 0.0
2018-Apr-16 10:30N 37°49' W 122°19'0 0.0
2018-Apr-16 10:00N 37°49' W 122°19'0 0.0
2018-Apr-16 09:30N 37°49' W 122°19'0 0.0
2018-Apr-16 09:00N 37°49' W 122°19'0 0.0
2018-Apr-16 08:30N 37°49' W 122°19'0 0.0
2018-Apr-16 08:00N 37°49' W 122°19'0 0.0
2018-Apr-16 07:30N 37°49' W 122°19'0 0.0
2018-Apr-16 07:00N 37°49' W 122°19'0 0.0
2018-Apr-16 06:30N 37°49' W 122°19'0 0.0
2018-Apr-16 06:00N 37°49' W 122°19'0 0.0
2018-Apr-16 05:30N 37°49' W 122°19'0 0.0
2018-Apr-16 05:00N 37°49' W 122°19'0 0.0
2018-Apr-16 04:30N 37°49' W 122°19'0 0.0
2018-Apr-16 04:00N 37°49' W 122°19'0 0.0
2018-Apr-16 03:30N 37°49' W 122°19'0 0.0
2018-Apr-16 03:00N 37°49' W 122°19'1 1.8
2018-Apr-16 02:30N 37°49' W 122°19'0 0.2
2018-Apr-16 02:00N 37°49' W 122°20'2 3.7
2018-Apr-16 01:30N 37°48' W 122°22'3 5.3
2018-Apr-16 01:00N 37°49' W 122°19'0 0.0
2018-Apr-16 00:30N 37°49' W 122°19'0 0.0
2018-Apr-16 00:00N 37°49' W 122°19'0 0.0
2018-Apr-15 23:30N 37°49' W 122°19'0 0.0
2018-Apr-15 23:00N 37°49' W 122°19'0 0.0
2018-Apr-15 22:30N 37°49' W 122°19'0 0.0
2018-Apr-15 22:00N 37°49' W 122°19'0 0.0
2018-Apr-15 21:30N 37°49' W 122°19'0 0.0
2018-Apr-15 21:00N 37°49' W 122°19'0 0.0
2018-Apr-15 20:30N 37°49' W 122°19'0 0.0
2018-Apr-15 20:00N 37°49' W 122°19'0 0.0
2018-Apr-15 19:30N 37°49' W 122°19'0 0.0
2018-Apr-15 19:00N 37°49' W 122°19'0 0.0
2018-Apr-15 18:30N 37°49' W 122°19'0 0.0
2018-Apr-15 18:00N 37°49' W 122°19'0 0.0
2018-Apr-15 17:30N 37°49' W 122°19'0 0.0
2018-Apr-15 17:00N 37°49' W 122°19'0 0.0
2018-Apr-15 16:30N 37°49' W 122°19'0 0.0
2018-Apr-15 16:00N 37°49' W 122°19'0 0.0
2018-Apr-15 15:30N 37°49' W 122°19'0 0.0
2018-Apr-15 15:00N 37°49' W 122°19'0 0.0
2018-Apr-15 14:30N 37°49' W 122°19'0 0.0
2018-Apr-15 14:00N 37°49' W 122°19'1 2.9
2018-Apr-15 13:30N 37°49' W 122°20'1 2.4
2018-Apr-15 13:01N 37°48' W 122°19'1 2.9
2018-Apr-15 12:31N 37°48' W 122°17'2 3.7
2018-Apr-15 12:01N 37°48' W 122°20'2 3.9
2018-Apr-15 11:30N 37°48' W 122°22'1 2.6
2018-Apr-15 11:00N 37°48' W 122°21'0 0.0
2018-Apr-15 10:30N 37°48' W 122°21'0 0.0
2018-Apr-15 10:00N 37°48' W 122°21'1 1.9
2018-Apr-15 09:30N 37°49' W 122°19'0 0.7
2018-Apr-15 09:00N 37°49' W 122°20'1 2.2
2018-Apr-15 08:31N 37°49' W 122°19'0 0.0
2018-Apr-15 08:00N 37°49' W 122°19'0 0.0
2018-Apr-15 07:30N 37°49' W 122°19'0 0.0
2018-Apr-15 07:00N 37°49' W 122°19'0 0.0
2018-Apr-15 06:30N 37°49' W 122°19'0 0.0
2018-Apr-15 06:00N 37°49' W 122°19'0 0.0
2018-Apr-15 05:30N 37°49' W 122°19'0 0.0
2018-Apr-15 05:00N 37°49' W 122°19'0 0.0
2018-Apr-15 04:30N 37°49' W 122°19'0 0.0
2018-Apr-15 04:00N 37°49' W 122°19'0 0.0
2018-Apr-15 03:30N 37°49' W 122°19'0 0.0
2018-Apr-15 03:00N 37°49' W 122°19'0 0.0
2018-Apr-15 02:30N 37°49' W 122°19'0 0.0
2018-Apr-15 02:00N 37°49' W 122°19'0 0.0
2018-Apr-15 01:30N 37°49' W 122°19'0 0.0
2018-Apr-15 01:00N 37°49' W 122°19'0 0.0
2018-Apr-15 00:30N 37°49' W 122°19'0 0.0
2018-Apr-15 00:00N 37°49' W 122°19'0 0.0
2018-Apr-14 23:30N 37°49' W 122°19'0 0.0
2018-Apr-14 23:00N 37°49' W 122°19'0 0.0
2018-Apr-14 22:29N 37°49' W 122°19'0 0.0
2018-Apr-14 22:00N 37°49' W 122°19'0 0.0
2018-Apr-14 21:30N 37°49' W 122°19'0 0.0
2018-Apr-14 21:00N 37°49' W 122°19'0 0.0
2018-Apr-14 20:29N 37°49' W 122°19'0 0.0
2018-Apr-14 20:00N 37°49' W 122°19'0 0.0
2018-Apr-14 19:30N 37°49' W 122°19'0 0.0
2018-Apr-14 19:00N 37°49' W 122°19'0 0.0
2018-Apr-14 18:30N 37°49' W 122°19'0 0.0
2018-Apr-14 18:00N 37°49' W 122°19'0 0.0
2018-Apr-14 17:30N 37°49' W 122°19'0 0.0
2018-Apr-14 17:00N 37°49' W 122°19'0 0.0
2018-Apr-14 16:30N 37°49' W 122°19'0 0.0
2018-Apr-14 16:00N 37°49' W 122°19'0 0.0
2018-Apr-14 15:30N 37°49' W 122°19'0 0.0
2018-Apr-14 15:00N 37°49' W 122°19'0 0.0
2018-Apr-14 14:30N 37°49' W 122°19'0 0.0
2018-Apr-14 14:00N 37°49' W 122°19'1 2.3
2018-Apr-14 13:30N 37°49' W 122°20'1 1.8
2018-Apr-14 13:00N 37°48' W 122°19'0 0.1
2018-Apr-14 12:30N 37°48' W 122°20'1 2.7
2018-Apr-14 12:00N 37°48' W 122°21'2 4.2
2018-Apr-14 11:30N 37°49' W 122°19'0 0.0
2018-Apr-14 11:00N 37°49' W 122°19'0 0.0
2018-Apr-14 10:30N 37°49' W 122°19'0 0.0
2018-Apr-14 10:00N 37°49' W 122°19'0 0.0
2018-Apr-14 09:30N 37°49' W 122°19'0 0.0
2018-Apr-14 09:00N 37°49' W 122°19'0 0.0
2018-Apr-14 08:30N 37°49' W 122°19'0 0.0
2018-Apr-14 08:00N 37°49' W 122°19'0 0.0
2018-Apr-14 07:30N 37°49' W 122°19'0 0.0
2018-Apr-14 07:00N 37°49' W 122°19'0 0.0
2018-Apr-14 06:30N 37°49' W 122°19'0 0.0
2018-Apr-14 06:00N 37°49' W 122°19'0 0.0
2018-Apr-14 05:30N 37°49' W 122°19'0 0.0
2018-Apr-14 05:00N 37°49' W 122°19'0 0.0
2018-Apr-14 04:30N 37°49' W 122°19'0 0.0
2018-Apr-14 04:00N 37°49' W 122°19'0 0.0
2018-Apr-14 03:30N 37°49' W 122°19'0 0.0
2018-Apr-14 03:00N 37°49' W 122°19'0 0.0
2018-Apr-14 02:30N 37°49' W 122°19'0 0.0
2018-Apr-14 02:00N 37°49' W 122°19'0 0.0
2018-Apr-14 01:30N 37°49' W 122°19'0 0.0
2018-Apr-14 01:00N 37°49' W 122°19'1 2.8
2018-Apr-14 00:30N 37°49' W 122°20'510.2
2018-Apr-14 00:00N 37°53' W 122°24'2 4.3
2018-Apr-13 23:30N 37°54' W 122°23'0 0.0
2018-Apr-13 23:00N 37°54' W 122°23'0 0.0
2018-Apr-13 22:30N 37°54' W 122°23'1 2.0
2018-Apr-13 21:56N 37°54' W 122°22'3 5.8
2018-Apr-13 21:30N 37°54' W 122°25'510.2
2018-Apr-13 21:00N 37°49' W 122°21'2 4.2
2018-Apr-13 20:30N 37°49' W 122°19'0 0.0
2018-Apr-13 20:00N 37°49' W 122°19'0 0.0
2018-Apr-13 19:30N 37°49' W 122°19'0 0.0
2018-Apr-13 19:00N 37°49' W 122°19'0 0.0
2018-Apr-13 18:30N 37°49' W 122°19'0 0.0
2018-Apr-13 18:00N 37°49' W 122°19'0 0.0
2018-Apr-13 17:30N 37°49' W 122°19'0 0.0
2018-Apr-13 17:00N 37°49' W 122°19'0 0.0
2018-Apr-13 16:30N 37°49' W 122°19'0 0.0
2018-Apr-13 16:00N 37°49' W 122°19'0 0.0
2018-Apr-13 15:30N 37°49' W 122°19'0 0.0
2018-Apr-13 15:00N 37°49' W 122°19'0 0.0
2018-Apr-13 14:30N 37°49' W 122°19'2 3.4
2018-Apr-13 14:00N 37°48' W 122°21'3 5.2
2018-Apr-13 13:30N 37°47' W 122°17'1 2.2
2018-Apr-13 13:00N 37°48' W 122°19'3 5.2
2018-Apr-13 12:30N 37°48' W 122°22'1 2.5
2018-Apr-13 12:00N 37°48' W 122°21'0 0.0
2018-Apr-13 11:30N 37°48' W 122°21'0 0.0
2018-Apr-13 11:00N 37°48' W 122°21'0 0.0
2018-Apr-13 10:30N 37°48' W 122°21'0 0.0
2018-Apr-13 09:58N 37°48' W 122°21'0 0.0
2018-Apr-13 09:30N 37°48' W 122°21'1 2.1
2018-Apr-13 09:00N 37°48' W 122°19'1 1.5
2018-Apr-13 08:31N 37°48' W 122°18'0 0.5
2018-Apr-13 08:00N 37°48' W 122°18'3 5.8
2018-Apr-13 07:30N 37°48' W 122°22'1 2.0
2018-Apr-13 07:00N 37°48' W 122°21'0 0.0
2018-Apr-13 06:30N 37°48' W 122°21'0 0.0
2018-Apr-13 06:00N 37°48' W 122°21'0 0.0
2018-Apr-13 05:30N 37°48' W 122°21'0 0.0
2018-Apr-13 05:00N 37°48' W 122°21'0 0.0
2018-Apr-13 04:30N 37°48' W 122°21'3 5.3
2018-Apr-13 04:00N 37°51' W 122°22'4 8.2
2018-Apr-13 03:30N 37°54' W 122°24'2 3.3
2018-Apr-13 03:00N 37°55' W 122°22'0 0.4
2018-Apr-13 02:30N 37°54' W 122°22'2 3.9
2018-Apr-13 02:00N 37°54' W 122°24'2 3.5
2018-Apr-13 01:30N 37°53' W 122°25'1 2.5
2018-Apr-13 01:00N 37°52' W 122°24'4 8.2
2018-Apr-13 00:30N 37°49' W 122°21'2 3.6
2018-Apr-12 23:59N 37°49' W 122°19'0 0.0
2018-Apr-12 23:31N 37°49' W 122°19'0 0.0
2018-Apr-12 23:00N 37°49' W 122°19'0 0.0
2018-Apr-12 22:30N 37°49' W 122°19'0 0.0
2018-Apr-12 22:00N 37°49' W 122°19'0 0.0
2018-Apr-12 21:30N 37°49' W 122°19'0 0.0
2018-Apr-12 21:01N 37°49' W 122°19'0 0.0
2018-Apr-12 20:30N 37°49' W 122°19'0 0.0
2018-Apr-12 20:00N 37°49' W 122°19'0 0.0
2018-Apr-12 19:30N 37°49' W 122°19'0 0.0
2018-Apr-12 19:00N 37°49' W 122°19'0 0.0
2018-Apr-12 18:30N 37°49' W 122°19'0 0.0
2018-Apr-12 18:00N 37°49' W 122°19'0 0.0
2018-Apr-12 17:31N 37°49' W 122°19'0 0.0
2018-Apr-12 17:01N 37°49' W 122°19'0 0.0
2018-Apr-12 16:31N 37°49' W 122°19'0 0.0
2018-Apr-12 16:00N 37°49' W 122°19'0 0.0
2018-Apr-12 15:30N 37°49' W 122°19'0 0.0
2018-Apr-12 15:00N 37°49' W 122°19'0 0.0
2018-Apr-12 14:29N 37°49' W 122°19'2 3.5
2018-Apr-12 14:01N 37°48' W 122°19'0 0.3
2018-Apr-12 13:30N 37°48' W 122°18'1 1.2
2018-Apr-12 13:00N 37°48' W 122°18'3 5.4
2018-Apr-12 12:31N 37°48' W 122°21'2 3.1
2018-Apr-12 12:00N 37°48' W 122°23'2 3.8
2018-Apr-12 11:31N 37°48' W 122°21'0 0.0
2018-Apr-12 11:00N 37°48' W 122°21'0 0.3
2018-Apr-12 10:30N 37°48' W 122°21'1 1.2
2018-Apr-12 10:00N 37°49' W 122°20'1 1.3
2018-Apr-12 09:30N 37°49' W 122°19'0 0.9
2018-Apr-12 09:00N 37°49' W 122°19'0 0.0
2018-Apr-12 08:30N 37°49' W 122°19'0 0.0
2018-Apr-12 08:00N 37°49' W 122°19'0 0.0
2018-Apr-12 07:31N 37°49' W 122°19'0 0.0
2018-Apr-12 07:01N 37°49' W 122°19'0 0.0
2018-Apr-12 06:31N 37°49' W 122°19'0 0.0
2018-Apr-12 06:01N 37°49' W 122°19'0 0.0
2018-Apr-12 05:31N 37°49' W 122°19'0 0.0
2018-Apr-12 05:00N 37°49' W 122°19'0 0.0
2018-Apr-12 04:30N 37°49' W 122°19'0 0.0
2018-Apr-12 04:00N 37°49' W 122°19'0 0.0
2018-Apr-12 03:30N 37°49' W 122°19'0 0.0
2018-Apr-12 03:01N 37°49' W 122°19'0 0.0
2018-Apr-12 02:30N 37°49' W 122°19'0 0.0
2018-Apr-12 01:59N 37°49' W 122°19'2 3.7
2018-Apr-12 01:30N 37°48' W 122°20'1 2.8
2018-Apr-12 01:00N 37°48' W 122°19'0 0.1
2018-Apr-12 00:31N 37°48' W 122°19'1 2.0
2018-Apr-12 00:00N 37°49' W 122°19'0 0.0
2018-Apr-11 23:29N 37°49' W 122°19'0 0.7
2018-Apr-11 23:00N 37°49' W 122°20'2 4.0
2018-Apr-11 22:30N 37°48' W 122°22'3 5.5
2018-Apr-11 22:01N 37°49' W 122°19'0 0.6
2018-Apr-11 21:31N 37°49' W 122°19'0 0.0
2018-Apr-11 21:00N 37°49' W 122°19'0 0.0
2018-Apr-11 20:30N 37°49' W 122°19'0 0.0
2018-Apr-11 20:00N 37°49' W 122°19'0 0.0
2018-Apr-11 19:31N 37°49' W 122°19'0 0.0
2018-Apr-11 19:00N 37°49' W 122°19'0 0.0
2018-Apr-11 18:31N 37°49' W 122°19'0 0.0
2018-Apr-11 18:00N 37°49' W 122°19'0 0.0
2018-Apr-11 17:30N 37°49' W 122°19'0 0.0
2018-Apr-11 17:00N 37°49' W 122°19'0 0.0
2018-Apr-11 16:31N 37°49' W 122°19'0 0.0
2018-Apr-11 16:01N 37°49' W 122°19'0 0.0
2018-Apr-11 15:30N 37°49' W 122°19'0 0.0
2018-Apr-11 15:01N 37°49' W 122°19'0 0.0
2018-Apr-11 14:30N 37°49' W 122°19'1 2.1
2018-Apr-11 14:01N 37°49' W 122°20'0 0.8
2018-Apr-11 13:30N 37°49' W 122°20'1 2.4
2018-Apr-11 13:01N 37°48' W 122°19'0 0.9
2018-Apr-11 12:30N 37°48' W 122°19'0 0.2
2018-Apr-11 12:01N 37°48' W 122°19'1 1.4
2018-Apr-11 11:31N 37°48' W 122°18'3 6.8
2018-Apr-11 11:00N 37°48' W 122°22'3 5.8
2018-Apr-11 10:31N 37°49' W 122°19'0 0.0
2018-Apr-11 10:00N 37°49' W 122°19'0 0.0
2018-Apr-11 09:30N 37°49' W 122°19'0 0.0
2018-Apr-11 09:00N 37°49' W 122°19'0 0.0
2018-Apr-11 08:30N 37°49' W 122°19'0 0.0
2018-Apr-11 08:00N 37°49' W 122°19'0 0.0
2018-Apr-11 07:31N 37°49' W 122°19'0 0.0
2018-Apr-11 07:01N 37°49' W 122°19'0 0.0
2018-Apr-11 06:30N 37°49' W 122°19'0 0.0
2018-Apr-11 06:00N 37°49' W 122°19'0 0.0
2018-Apr-11 05:30N 37°49' W 122°19'0 0.0
2018-Apr-11 05:00N 37°49' W 122°19'0 0.0
2018-Apr-11 04:30N 37°49' W 122°19'0 0.0
2018-Apr-11 04:00N 37°49' W 122°19'2 3.7
2018-Apr-11 03:30N 37°48' W 122°18'0 0.1
2018-Apr-11 03:00N 37°48' W 122°18'1 2.2
2018-Apr-11 02:31N 37°48' W 122°19'0 0.2
2018-Apr-11 02:00N 37°48' W 122°19'3 6.3
2018-Apr-11 01:29N 37°50' W 122°22'510.1
2018-Apr-11 01:00N 37°55' W 122°25'5 9.2
2018-Apr-11 00:29N 37°59' W 122°25'510.1
2018-Apr-11 00:00N 38°02' W 122°20'10 1.2
2018-Apr-10 15:46N 38°02' W 122°07'1 1.3
2018-Apr-10 14:37N 38°03' W 122°06'2 7.9
2018-Apr-10 14:21N 38°02' W 122°08'3 8.4
2018-Apr-10 14:00N 38°03' W 122°12'4 8.3
2018-Apr-10 13:30N 38°03' W 122°17'4 8.6
2018-Apr-10 13:00N 38°02' W 122°22'5 9.4
2018-Apr-10 12:29N 37°58' W 122°26'510.1
2018-Apr-10 12:00N 37°53' W 122°25'5 9.3
2018-Apr-10 11:31N 37°49' W 122°21'2 4.3
2018-Apr-10 11:00N 37°49' W 122°19'0 0.4
2018-Apr-10 10:30N 37°49' W 122°19'1 1.4
2018-Apr-10 09:57N 37°49' W 122°20'1 2.3
2018-Apr-10 09:30N 37°49' W 122°19'0 0.0
2018-Apr-10 09:00N 37°49' W 122°19'0 0.0
2018-Apr-10 08:30N 37°49' W 122°19'0 0.0
2018-Apr-10 08:00N 37°49' W 122°19'0 0.0
2018-Apr-10 07:31N 37°49' W 122°19'0 0.0
2018-Apr-10 07:01N 37°49' W 122°19'0 0.0
2018-Apr-10 06:30N 37°49' W 122°19'0 0.0
2018-Apr-10 06:00N 37°49' W 122°19'0 0.0
2018-Apr-10 05:30N 37°49' W 122°19'0 0.0
2018-Apr-10 05:00N 37°49' W 122°19'0 0.0
2018-Apr-10 04:29N 37°49' W 122°19'0 0.0
2018-Apr-10 04:00N 37°49' W 122°19'0 0.0
2018-Apr-10 03:30N 37°49' W 122°19'0 0.0
2018-Apr-10 03:01N 37°49' W 122°19'0 0.0
2018-Apr-10 02:29N 37°49' W 122°19'0 0.0
2018-Apr-10 02:00N 37°49' W 122°19'0 0.0
2018-Apr-10 01:30N 37°49' W 122°19'1 2.8
2018-Apr-10 01:01N 37°49' W 122°20'510.3
2018-Apr-10 00:30N 37°53' W 122°24'3 5.5
2018-Apr-10 00:00N 37°54' W 122°22'0 0.3
2018-Apr-09 23:30N 37°55' W 122°22'1 1.1
2018-Apr-09 23:00N 37°54' W 122°22'3 5.4
2018-Apr-09 22:30N 37°55' W 122°26'2 3.4
2018-Apr-09 22:01N 37°54' W 122°24'0 0.5
2018-Apr-09 21:30N 37°54' W 122°23'  

Dump ship's entire track history